createdAt,value
2017-08-04T08:45:02.757Z,33.30
2017-08-04T08:47:30.320Z,34.70
2017-08-04T08:49:57.888Z,35.10
2017-08-04T08:52:25.466Z,35.00
2017-08-04T08:54:53.056Z,35.90
2017-08-04T08:57:20.606Z,35.60
2017-08-04T08:59:48.204Z,35.80
2017-08-04T09:02:15.736Z,34.10
2017-08-04T09:04:43.289Z,32.30
2017-08-04T09:07:11.241Z,31.20
2017-08-04T09:09:38.785Z,31.70
2017-08-04T09:12:06.325Z,34.30
2017-08-04T09:14:33.939Z,35.50
2017-08-04T09:17:01.517Z,36.70
2017-08-04T09:19:29.052Z,36.20
2017-08-04T09:21:56.625Z,34.30
2017-08-04T09:24:24.170Z,33.00
2017-08-04T09:26:51.722Z,30.30
2017-08-04T09:29:19.335Z,28.30
2017-08-04T09:31:47.646Z,28.00
2017-08-04T09:34:15.189Z,28.00
2017-08-04T09:36:42.763Z,28.50
2017-08-04T09:39:10.300Z,30.20
2017-08-04T09:41:37.845Z,33.20
2017-08-04T09:44:06.189Z,37.90
2017-08-04T09:46:34.245Z,37.20
2017-08-04T09:49:01.785Z,38.50
2017-08-04T09:51:29.415Z,39.60
2017-08-04T09:53:56.965Z,40.40
2017-08-04T09:56:24.512Z,41.80
2017-08-04T09:58:52.110Z,43.20
2017-08-04T10:01:19.669Z,44.80
2017-08-04T10:03:47.231Z,45.50
2017-08-04T10:06:14.808Z,46.30
2017-08-04T10:08:42.362Z,46.70
2017-08-04T10:11:09.906Z,47.20
2017-08-04T10:13:37.517Z,47.60
2017-08-04T10:16:05.063Z,47.60
2017-08-04T10:18:32.604Z,47.80
2017-08-04T10:21:00.212Z,47.60
2017-08-04T10:23:27.765Z,47.80
2017-08-04T10:25:55.305Z,47.40
2017-08-04T10:28:22.886Z,47.00
2017-08-04T10:30:50.437Z,44.10
2017-08-04T10:33:17.981Z,41.90
2017-08-04T10:35:45.586Z,41.70
2017-08-04T10:38:13.122Z,40.20
2017-08-04T10:40:40.669Z,41.20
2017-08-04T10:43:08.250Z,40.60
2017-08-04T10:45:35.797Z,39.60
2017-08-04T10:48:03.710Z,38.80
2017-08-04T10:50:31.302Z,38.00
2017-08-04T10:52:59.567Z,37.40
2017-08-04T10:55:27.132Z,38.20
2017-08-04T10:57:54.770Z,38.70
2017-08-04T11:00:23.198Z,40.20
2017-08-04T11:02:50.747Z,40.30
2017-08-04T11:05:18.312Z,40.90
2017-08-04T11:07:46.135Z,40.50
2017-08-04T11:10:14.709Z,41.80
2017-08-04T11:12:42.308Z,41.60
2017-08-04T11:15:09.854Z,41.60
2017-08-04T11:17:37.400Z,42.50
2017-08-04T11:20:05.032Z,41.70
2017-08-04T11:22:32.578Z,43.20
2017-08-04T11:25:00.133Z,43.50
2017-08-04T11:27:27.746Z,42.60
2017-08-04T11:29:56.055Z,41.80
2017-08-04T11:32:23.592Z,41.80
2017-08-04T11:34:51.165Z,42.10
2017-08-04T11:37:18.704Z,41.40
2017-08-04T11:39:46.241Z,41.70
2017-08-04T11:42:13.855Z,41.60
2017-08-04T11:44:41.403Z,41.80
2017-08-04T11:47:08.948Z,41.80
2017-08-04T11:49:36.986Z,42.50
2017-08-04T11:52:04.537Z,42.60
2017-08-04T11:54:35.624Z,43.30
2017-08-04T11:57:03.196Z,43.00
2017-08-04T11:59:30.740Z,43.00
2017-08-04T12:01:58.290Z,42.80
2017-08-04T12:04:26.670Z,44.10
2017-08-04T12:06:54.979Z,43.80
2017-08-04T12:09:22.522Z,44.30
2017-08-04T12:11:50.105Z,45.80
2017-08-04T12:14:17.653Z,45.20
2017-08-04T12:16:45.206Z,45.60
2017-08-04T12:19:12.801Z,45.10
2017-08-04T12:21:40.346Z,44.80
2017-08-04T12:24:07.889Z,45.60
2017-08-04T12:26:35.498Z,45.80
2017-08-04T12:29:03.038Z,46.00
2017-08-04T12:31:30.583Z,46.20
2017-08-04T12:33:58.204Z,46.10
2017-08-04T12:36:25.749Z,46.20
2017-08-04T12:38:53.285Z,46.50
2017-08-04T12:41:20.855Z,45.80
2017-08-04T12:43:48.390Z,45.10
2017-08-04T12:46:16.551Z,46.20
2017-08-04T12:48:44.156Z,46.20
2017-08-04T12:51:12.262Z,46.00
2017-08-04T12:53:39.809Z,45.90
2017-08-04T12:56:08.141Z,45.30
2017-08-04T12:58:35.681Z,45.30
2017-08-04T13:01:03.216Z,45.60
2017-08-04T13:03:30.792Z,46.40
2017-08-04T13:05:58.334Z,45.80
2017-08-04T13:08:26.641Z,45.00
2017-08-04T13:10:54.253Z,44.90
2017-08-04T13:13:21.793Z,45.50
2017-08-04T13:15:49.338Z,45.80
2017-08-04T13:18:16.908Z,44.80
2017-08-04T13:20:44.452Z,44.90
2017-08-04T13:23:11.990Z,45.10
2017-08-04T13:25:39.578Z,44.80
2017-08-04T13:28:07.110Z,43.20
2017-08-04T13:30:34.652Z,42.20
2017-08-04T13:33:02.289Z,43.30
2017-08-04T13:35:29.825Z,43.00
2017-08-04T13:37:57.365Z,43.70
2017-08-04T13:40:24.973Z,43.50
2017-08-04T13:42:52.519Z,44.10
2017-08-04T13:45:20.060Z,44.30
2017-08-04T13:47:47.624Z,44.90
2017-08-04T13:50:15.165Z,45.00
2017-08-04T13:52:43.006Z,44.70
2017-08-04T13:55:10.621Z,43.50
2017-08-04T13:57:38.157Z,44.20
2017-08-04T14:00:05.741Z,42.90
2017-08-04T14:02:33.321Z,42.20
2017-08-04T14:05:00.867Z,41.40
2017-08-04T14:07:28.413Z,42.60
2017-08-04T14:09:55.985Z,44.00
2017-08-04T14:12:23.521Z,43.80
2017-08-04T14:14:51.061Z,43.50
2017-08-04T14:17:18.666Z,45.20
2017-08-04T14:19:46.210Z,46.40
2017-08-04T14:22:13.777Z,46.10
2017-08-04T14:24:41.341Z,46.30
2017-08-04T14:27:08.889Z,47.90
2017-08-04T14:29:36.429Z,47.80
2017-08-04T14:32:04.013Z,47.90
2017-08-04T14:34:31.545Z,47.60
2017-08-04T14:36:59.077Z,48.90
2017-08-04T14:39:26.698Z,48.90
2017-08-04T14:41:54.296Z,48.00
2017-08-04T14:44:21.841Z,48.00
2017-08-04T14:46:49.440Z,47.70
2017-08-04T14:49:16.980Z,47.40
2017-08-04T14:51:44.527Z,47.70
2017-08-04T14:54:13.113Z,47.80
2017-08-04T14:56:40.670Z,47.80
2017-08-04T14:59:08.985Z,48.70
2017-08-04T15:01:36.598Z,48.60
2017-08-04T15:04:04.146Z,48.40
2017-08-04T15:06:31.695Z,48.10
2017-08-04T15:08:59.262Z,48.60
2017-08-04T15:11:26.801Z,49.00
2017-08-04T15:13:54.347Z,49.00
2017-08-04T15:16:21.941Z,49.30
2017-08-04T15:18:49.490Z,49.30
2017-08-04T15:21:17.033Z,50.20
2017-08-04T15:23:44.637Z,49.30
2017-08-04T15:26:12.172Z,49.30
2017-08-04T15:28:39.718Z,49.30
2017-08-04T15:31:07.378Z,49.20
2017-08-04T15:33:34.926Z,48.60
2017-08-04T15:36:02.470Z,47.80
2017-08-04T15:38:30.041Z,49.10
2017-08-04T15:40:57.576Z,48.20
2017-08-04T15:43:25.121Z,48.50
2017-08-04T15:45:53.497Z,48.90
2017-08-04T15:48:21.034Z,49.00
2017-08-04T15:50:48.586Z,48.80
2017-08-04T15:53:18.298Z,49.30
2017-08-04T15:55:46.357Z,49.40
2017-08-04T15:58:13.897Z,49.60
2017-08-04T16:00:41.471Z,49.20
2017-08-04T16:03:09.001Z,49.50
2017-08-04T16:05:36.548Z,48.30
2017-08-04T16:08:04.944Z,48.00
2017-08-04T16:10:32.491Z,47.80
2017-08-04T16:13:00.047Z,48.70
2017-08-04T16:15:27.612Z,48.00
2017-08-04T16:17:55.926Z,49.00
2017-08-04T16:20:23.473Z,49.00
2017-08-04T16:22:51.034Z,48.50
2017-08-04T16:25:18.572Z,48.70
2017-08-04T16:27:46.117Z,48.80
2017-08-04T16:30:14.494Z,48.10
2017-08-04T16:32:42.040Z,48.50
2017-08-04T16:35:09.614Z,48.60
2017-08-04T16:37:37.177Z,48.80
2017-08-04T16:40:05.485Z,49.80
2017-08-04T16:42:33.023Z,49.20
2017-08-04T16:45:01.370Z,49.20
2017-08-04T16:47:28.925Z,49.20
2017-08-04T16:49:56.465Z,50.30
2017-08-04T16:52:24.073Z,50.40
2017-08-04T16:54:52.385Z,50.80
2017-08-04T16:57:19.989Z,50.70
2017-08-04T16:59:47.693Z,50.60
2017-08-04T17:02:15.233Z,51.20
2017-08-04T17:04:42.774Z,51.50
2017-08-04T17:07:10.340Z,51.00
2017-08-04T17:09:37.884Z,51.40
2017-08-04T17:12:05.426Z,51.30
2017-08-04T17:14:33.045Z,51.60
2017-08-04T17:17:01.389Z,51.20
2017-08-04T17:19:28.937Z,51.10
2017-08-04T17:21:56.501Z,51.80
2017-08-04T17:24:24.039Z,51.20
2017-08-04T17:26:55.532Z,51.70
2017-08-04T17:29:23.952Z,51.60
2017-08-04T17:31:51.486Z,51.60
2017-08-04T17:34:19.033Z,51.40
2017-08-04T17:36:46.613Z,51.20
2017-08-04T17:39:15.639Z,51.00
2017-08-04T17:41:43.172Z,51.00
2017-08-04T17:44:11.573Z,51.60
2017-08-04T17:46:39.174Z,52.00
2017-08-04T17:49:06.709Z,51.90
2017-08-04T17:51:34.701Z,52.70
2017-08-04T17:54:15.580Z,52.70
2017-08-04T17:56:48.938Z,52.70
2017-08-04T17:59:22.023Z,53.20
2017-08-04T18:01:54.967Z,53.30
2017-08-04T18:04:22.592Z,53.70
2017-08-04T18:06:50.125Z,53.40
2017-08-04T18:09:17.718Z,53.10
2017-08-04T18:11:45.253Z,53.70
2017-08-04T18:14:12.833Z,53.40
2017-08-04T18:16:40.450Z,54.50
2017-08-04T18:19:08.011Z,55.00
2017-08-04T18:21:35.553Z,55.00
2017-08-04T18:24:03.894Z,54.70
2017-08-04T18:26:31.435Z,54.70
2017-08-04T18:28:58.981Z,55.40
2017-08-04T18:31:26.666Z,55.20
2017-08-04T18:33:54.204Z,55.50
2017-08-04T18:36:21.803Z,55.50
2017-08-04T18:38:49.374Z,55.90
2017-08-04T18:41:16.926Z,56.40
2017-08-04T18:43:44.461Z,57.00
2017-08-04T18:46:12.025Z,57.70
2017-08-04T18:51:13.553Z,58.30
2017-08-04T18:53:44.483Z,58.70
2017-08-04T18:56:16.195Z,59.50
2017-08-04T18:58:48.058Z,59.50
2017-08-04T19:01:24.912Z,60.40
2017-08-04T19:03:52.441Z,60.90
2017-08-04T19:06:20.788Z,61.60
2017-08-04T19:08:48.857Z,61.60
2017-08-04T19:11:16.397Z,61.20
2017-08-04T19:13:43.933Z,60.70
2017-08-04T19:16:11.510Z,59.80
2017-08-04T19:18:39.061Z,59.70
2017-08-04T19:21:06.601Z,58.90
2017-08-04T19:23:34.187Z,56.90
2017-08-04T19:26:01.737Z,57.20
2017-08-04T19:28:29.269Z,57.70
2017-08-04T19:30:56.939Z,57.50
2017-08-04T19:33:25.283Z,57.80
2017-08-04T19:35:53.001Z,57.80
2017-08-04T19:38:20.606Z,58.40
2017-08-04T19:40:48.188Z,58.50
2017-08-04T19:43:15.729Z,58.80
2017-08-04T19:45:43.304Z,58.90
2017-08-04T19:48:11.522Z,59.20
2017-08-04T19:50:39.062Z,58.20
2017-08-04T19:53:07.390Z,58.00
2017-08-04T19:55:34.970Z,58.00
2017-08-04T19:58:02.517Z,57.70
2017-08-04T20:00:30.115Z,56.50
2017-08-04T20:02:59.726Z,56.40
2017-08-04T20:05:27.428Z,56.30
2017-08-04T20:07:55.087Z,56.80
2017-08-04T20:10:23.402Z,56.90
2017-08-04T20:12:50.945Z,57.20
2017-08-04T20:15:18.513Z,56.60
2017-08-04T20:17:46.066Z,55.70
2017-08-04T20:20:13.604Z,55.60
2017-08-04T20:22:41.239Z,55.70
2017-08-04T20:25:08.782Z,56.20
2017-08-04T20:27:36.322Z,56.60
2017-08-04T20:30:03.900Z,57.10
2017-08-04T20:32:32.214Z,57.70
2017-08-04T20:34:59.762Z,57.60
2017-08-04T20:37:27.376Z,57.10
2017-08-04T20:39:54.941Z,57.70
2017-08-04T20:42:22.493Z,57.50
2017-08-04T20:44:50.490Z,57.10
2017-08-04T20:47:18.797Z,58.10
2017-08-04T20:49:46.341Z,58.10
2017-08-04T20:52:13.919Z,56.90
2017-08-04T20:54:41.457Z,57.00
2017-08-04T20:57:09.009Z,56.20
2017-08-04T20:59:37.361Z,55.60
2017-08-04T21:02:04.925Z,55.60
2017-08-04T21:04:32.934Z,56.20
2017-08-04T21:07:00.649Z,56.40
2017-08-04T21:09:28.204Z,56.60
2017-08-04T21:11:55.744Z,56.80
2017-08-04T21:14:23.322Z,55.70
2017-08-04T21:16:50.868Z,55.90
2017-08-04T21:19:18.415Z,57.10
2017-08-04T21:21:46.006Z,56.80
2017-08-04T21:24:13.541Z,56.30
2017-08-04T21:26:41.088Z,56.50
2017-08-04T21:29:08.701Z,56.60
2017-08-04T21:31:36.233Z,56.20
2017-08-04T21:34:03.774Z,57.00
2017-08-04T21:36:31.357Z,56.40
2017-08-04T21:38:58.901Z,56.40
2017-08-04T21:41:26.442Z,55.50
2017-08-04T21:43:54.009Z,55.80
2017-08-04T21:46:21.558Z,55.90
2017-08-04T21:48:49.101Z,56.30
2017-08-04T21:51:16.717Z,56.70
2017-08-04T21:53:44.257Z,56.90
2017-08-04T21:56:11.797Z,57.00
2017-08-04T21:58:39.357Z,56.60
2017-08-04T22:01:06.897Z,56.70
2017-08-04T22:03:35.205Z,57.70
2017-08-04T22:06:03.126Z,57.10
2017-08-04T22:08:30.665Z,57.10
2017-08-04T22:10:58.210Z,56.70
2017-08-04T22:13:25.898Z,56.50
2017-08-04T22:15:53.432Z,57.00
2017-08-04T22:18:20.980Z,56.60
2017-08-04T22:20:48.551Z,56.60
2017-08-04T22:23:16.106Z,56.70
2017-08-04T22:25:43.654Z,56.80
2017-08-04T22:28:11.225Z,56.80
2017-08-04T22:30:38.765Z,56.60
2017-08-04T22:33:06.305Z,56.90
2017-08-04T22:35:34.679Z,57.20
2017-08-04T22:38:03.001Z,57.20
2017-08-04T22:40:30.540Z,57.80
2017-08-04T22:42:58.115Z,57.40
2017-08-04T22:45:25.665Z,57.20
2017-08-04T22:47:53.209Z,57.10
2017-08-04T22:50:20.777Z,57.30
2017-08-04T22:52:48.318Z,57.00
2017-08-04T22:55:15.848Z,57.00
2017-08-04T22:57:43.454Z,57.70
2017-08-04T23:00:11.001Z,57.90
2017-08-04T23:02:38.541Z,58.30
2017-08-04T23:05:06.125Z,58.50
2017-08-04T23:07:33.893Z,58.20
2017-08-04T23:10:01.425Z,58.40
2017-08-04T23:12:29.001Z,58.60
2017-08-04T23:14:57.311Z,58.50
2017-08-04T23:17:24.849Z,58.40
2017-08-04T23:19:52.529Z,58.50
2017-08-04T23:22:30.785Z,58.50
2017-08-04T23:24:58.357Z,59.10
2017-08-04T23:27:25.896Z,59.40
2017-08-04T23:29:53.437Z,59.10
2017-08-04T23:32:21.001Z,59.30
2017-08-04T23:34:48.543Z,58.60
2017-08-04T23:37:16.089Z,59.20
2017-08-04T23:39:43.849Z,59.30
2017-08-04T23:42:11.401Z,59.90
2017-08-04T23:44:39.709Z,59.60
2017-08-04T23:47:07.284Z,59.50
2017-08-04T23:49:34.825Z,59.90
2017-08-04T23:52:02.358Z,59.80
2017-08-04T23:54:29.932Z,60.00
2017-08-04T23:56:57.469Z,60.10
2017-08-04T23:59:25.024Z,59.80
